createdAt,value
2022-09-18T00:02:09.749Z,13.30
2022-09-18T00:05:00.493Z,13.30
2022-09-18T00:10:46.832Z,13.30
2022-09-18T00:13:20.295Z,13.30
2022-09-18T00:17:06.958Z,13.30
2022-09-18T00:20:06.801Z,13.30
2022-09-18T00:23:05.616Z,13.30
2022-09-18T00:29:26.007Z,13.30
2022-09-18T00:31:56.071Z,13.20
2022-09-18T00:34:24.747Z,13.20
2022-09-18T00:37:10.024Z,13.20
2022-09-18T00:39:38.161Z,13.20
2022-09-18T00:42:30.028Z,13.20
2022-09-18T00:45:13.669Z,13.20
2022-09-18T00:47:45.486Z,13.30
2022-09-18T00:50:17.719Z,13.20
2022-09-18T00:52:51.877Z,13.30
2022-09-18T00:55:49.621Z,13.30
2022-09-18T00:58:17.499Z,13.30
2022-09-18T01:00:54.341Z,13.30
2022-09-18T01:03:23.101Z,13.30
2022-09-18T01:06:33.052Z,13.30
2022-09-18T01:09:10.418Z,13.30
2022-09-18T01:11:48.188Z,13.20
2022-09-18T01:17:18.893Z,13.20
2022-09-18T01:20:28.277Z,13.10
2022-09-18T01:23:14.267Z,13.10
2022-09-18T01:25:57.976Z,13.00
2022-09-18T01:28:35.214Z,13.00
2022-09-18T01:31:28.002Z,12.90
2022-09-18T01:34:03.172Z,12.90
2022-09-18T01:36:36.327Z,12.80
2022-09-18T01:39:20.989Z,12.80
2022-09-18T01:42:04.367Z,12.80
2022-09-18T01:44:40.194Z,12.80
2022-09-18T01:50:02.721Z,12.70
2022-09-18T01:58:39.076Z,12.70
2022-09-18T02:01:13.206Z,12.70
2022-09-18T02:03:50.088Z,12.70
2022-09-18T02:06:25.465Z,12.70
2022-09-18T02:09:26.623Z,12.80
2022-09-18T02:12:07.983Z,12.80
2022-09-18T02:14:44.418Z,12.70
2022-09-18T02:17:18.764Z,12.70
2022-09-18T02:19:50.912Z,12.70
2022-09-18T02:22:25.779Z,12.80
2022-09-18T02:24:58.151Z,12.80
2022-09-18T02:27:27.329Z,12.80
2022-09-18T02:29:56.187Z,12.80
2022-09-18T02:32:26.139Z,12.80
2022-09-18T02:34:57.103Z,12.80
2022-09-18T02:37:33.987Z,12.80
2022-09-18T02:40:17.399Z,12.80
2022-09-18T02:42:56.602Z,12.80
2022-09-18T02:45:32.573Z,12.80
2022-09-18T02:48:15.286Z,12.90
2022-09-18T02:50:52.819Z,12.80
2022-09-18T02:53:31.013Z,12.90
2022-09-18T02:56:05.951Z,12.90
2022-09-18T02:58:41.060Z,12.90
2022-09-18T03:01:09.659Z,12.90
2022-09-18T03:03:40.047Z,12.90
2022-09-18T03:06:09.971Z,12.90
2022-09-18T03:08:37.976Z,12.90
2022-09-18T03:11:06.234Z,12.90
2022-09-18T03:13:36.281Z,12.90
2022-09-18T03:16:04.492Z,13.00
2022-09-18T03:18:35.268Z,12.90
2022-09-18T03:21:05.023Z,12.90
2022-09-18T03:23:32.781Z,12.90
2022-09-18T03:26:11.595Z,12.90
2022-09-18T03:28:41.913Z,12.90
2022-09-18T03:31:12.634Z,12.90
2022-09-18T03:33:43.024Z,12.90
2022-09-18T03:36:15.226Z,12.90
2022-09-18T03:38:44.384Z,12.90
2022-09-18T03:41:12.203Z,12.80
2022-09-18T03:43:42.142Z,12.90
2022-09-18T03:46:10.410Z,12.90
2022-09-18T03:48:43.478Z,12.90
2022-09-18T03:51:12.756Z,12.90
2022-09-18T03:53:41.440Z,12.90
2022-09-18T03:56:09.231Z,12.90
2022-09-18T03:58:38.083Z,12.90
2022-09-18T04:01:07.370Z,12.90
2022-09-18T04:03:35.884Z,12.90
2022-09-18T04:06:03.977Z,12.90
2022-09-18T04:08:34.480Z,12.90
2022-09-18T04:11:03.904Z,12.90
2022-09-18T04:13:32.485Z,12.90
2022-09-18T04:16:06.466Z,12.90
2022-09-18T04:18:40.517Z,12.90
2022-09-18T04:21:09.271Z,12.90
2022-09-18T04:23:39.554Z,12.90
2022-09-18T04:26:10.499Z,12.90
2022-09-18T04:28:41.613Z,12.90
2022-09-18T04:31:09.714Z,12.90
2022-09-18T04:33:41.246Z,12.90
2022-09-18T04:36:10.420Z,12.90
2022-09-18T04:38:39.711Z,12.90
2022-09-18T04:41:07.681Z,12.90
2022-09-18T04:43:38.329Z,12.90
2022-09-18T04:46:07.248Z,13.00
2022-09-18T04:48:43.900Z,13.00
2022-09-18T04:51:18.500Z,12.90
2022-09-18T04:54:08.621Z,13.00
2022-09-18T04:56:38.067Z,12.90
2022-09-18T04:59:12.817Z,13.00
2022-09-18T05:01:42.991Z,12.90
2022-09-18T05:04:11.690Z,12.90
2022-09-18T05:06:58.921Z,13.00
2022-09-18T05:09:46.009Z,12.90
2022-09-18T05:12:15.812Z,12.90
2022-09-18T05:14:48.014Z,13.00
2022-09-18T05:17:18.928Z,12.90
2022-09-18T05:19:48.681Z,12.90
2022-09-18T05:22:24.948Z,12.90
2022-09-18T05:24:54.918Z,12.90
2022-09-18T05:27:33.434Z,13.00
2022-09-18T05:30:01.471Z,13.00
2022-09-18T05:32:33.314Z,12.90
2022-09-18T05:35:01.271Z,12.90
2022-09-18T05:37:35.948Z,12.90
2022-09-18T05:40:06.105Z,12.90
2022-09-18T05:42:33.943Z,13.00
2022-09-18T05:51:18.669Z,13.00
2022-09-18T05:53:49.029Z,12.90
2022-09-18T05:56:18.647Z,12.80
2022-09-18T05:58:46.840Z,12.80
2022-09-18T06:01:17.497Z,12.60
2022-09-18T06:03:45.377Z,12.60
2022-09-18T06:06:13.211Z,12.50
2022-09-18T06:08:41.037Z,12.40
2022-09-18T06:11:09.136Z,12.50
2022-09-18T06:13:38.386Z,12.40
2022-09-18T06:16:06.442Z,12.40
2022-09-18T06:18:34.436Z,12.40
2022-09-18T06:21:02.251Z,12.40
2022-09-18T06:23:30.348Z,12.50
2022-09-18T06:25:59.798Z,12.40
2022-09-18T06:28:28.193Z,12.40
2022-09-18T06:30:58.714Z,12.40
2022-09-18T06:33:29.282Z,12.30
2022-09-18T06:36:01.071Z,12.30
2022-09-18T06:38:29.904Z,12.30
2022-09-18T06:40:57.750Z,12.30
2022-09-18T06:43:25.576Z,12.20
2022-09-18T06:45:54.612Z,12.20
2022-09-18T06:48:29.220Z,12.20
2022-09-18T06:50:58.308Z,12.10
2022-09-18T06:53:27.035Z,12.10
2022-09-18T06:56:02.086Z,12.10
2022-09-18T06:58:31.686Z,12.10
2022-09-18T07:01:01.211Z,12.10
2022-09-18T07:03:30.514Z,12.10
2022-09-18T07:06:04.154Z,12.10
2022-09-18T07:08:47.771Z,12.20
2022-09-18T07:11:25.293Z,12.20
2022-09-18T07:14:00.066Z,12.20
2022-09-18T07:16:28.061Z,12.20
2022-09-18T07:19:14.732Z,12.30
2022-09-18T07:21:42.595Z,12.30
2022-09-18T07:26:58.037Z,12.40
2022-09-18T07:32:24.282Z,12.40
2022-09-18T07:38:02.014Z,12.40
2022-09-18T07:40:33.966Z,12.40
2022-09-18T07:43:08.439Z,12.50
2022-09-18T07:45:36.659Z,12.60
2022-09-18T07:48:08.151Z,12.50
2022-09-18T07:50:50.847Z,12.50
2022-09-18T07:53:21.589Z,12.60
2022-09-18T07:55:59.695Z,12.60
2022-09-18T07:58:28.856Z,12.50
2022-09-18T08:01:13.115Z,12.60
2022-09-18T08:03:45.900Z,12.60
2022-09-18T08:06:15.122Z,12.50
2022-09-18T08:08:48.395Z,12.50
2022-09-18T08:11:18.968Z,12.50
2022-09-18T08:13:49.432Z,12.50
2022-09-18T08:16:54.415Z,12.50
2022-09-18T08:19:22.190Z,12.50
2022-09-18T08:21:51.776Z,12.50
2022-09-18T08:24:21.833Z,12.50
2022-09-18T08:26:50.411Z,12.50
2022-09-18T08:29:28.392Z,12.50
2022-09-18T08:31:56.823Z,12.60
2022-09-18T08:34:27.358Z,12.60
2022-09-18T08:36:57.496Z,12.60
2022-09-18T08:39:50.288Z,12.60
2022-09-18T08:42:28.580Z,12.60
2022-09-18T08:45:20.754Z,12.60
2022-09-18T08:47:54.305Z,12.70
2022-09-18T08:54:08.044Z,12.70
2022-09-18T08:56:49.913Z,12.80
2022-09-18T08:59:29.100Z,12.80
2022-09-18T09:02:31.058Z,12.80
2022-09-18T09:08:46.402Z,12.70
2022-09-18T09:11:31.009Z,12.80
2022-09-18T09:14:17.048Z,12.80
2022-09-18T09:16:48.137Z,12.70
2022-09-18T09:19:31.269Z,12.70
2022-09-18T09:22:07.475Z,12.70
2022-09-18T09:24:37.700Z,12.70
2022-09-18T09:30:07.014Z,12.70
2022-09-18T09:32:48.566Z,12.70
2022-09-18T09:35:27.220Z,12.70
2022-09-18T09:37:58.693Z,12.70
2022-09-18T09:40:43.742Z,12.70
2022-09-18T09:43:24.084Z,12.70
2022-09-18T09:45:55.280Z,12.70
2022-09-18T09:48:30.146Z,12.70
2022-09-18T09:51:12.144Z,12.70
2022-09-18T09:53:43.262Z,12.70
2022-09-18T09:56:20.670Z,12.70
2022-09-18T09:58:59.163Z,12.70
2022-09-18T10:01:48.919Z,12.70
2022-09-18T10:04:27.269Z,12.70
2022-09-18T10:07:06.468Z,12.70
2022-09-18T10:09:47.061Z,12.60
2022-09-18T10:12:25.717Z,12.60
2022-09-18T10:14:56.703Z,12.70
2022-09-18T10:17:44.733Z,12.60
2022-09-18T10:20:17.929Z,12.70
2022-09-18T10:22:52.617Z,12.70
2022-09-18T10:25:33.148Z,12.70
2022-09-18T10:28:02.449Z,12.80
2022-09-18T10:30:35.610Z,12.80
2022-09-18T10:34:00.567Z,12.80
2022-09-18T10:40:15.012Z,13.00
2022-09-18T10:42:48.168Z,13.00
2022-09-18T10:48:25.893Z,13.00
2022-09-18T10:51:35.845Z,13.00
2022-09-18T10:54:14.905Z,13.10
2022-09-18T10:56:47.780Z,13.10
2022-09-18T10:59:43.107Z,13.10
2022-09-18T11:02:34.923Z,13.10
2022-09-18T11:05:06.753Z,13.10
2022-09-18T11:07:40.311Z,13.10
2022-09-18T11:10:14.181Z,13.10
2022-09-18T11:19:33.820Z,13.20
2022-09-18T11:23:08.179Z,13.20
2022-09-18T11:26:20.667Z,13.20
2022-09-18T11:29:06.643Z,13.20
2022-09-18T11:31:43.483Z,13.20
2022-09-18T11:34:26.988Z,13.20
2022-09-18T11:37:02.338Z,13.20
2022-09-18T11:39:43.386Z,13.20
2022-09-18T11:42:14.670Z,13.20
2022-09-18T11:45:14.297Z,13.30
2022-09-18T11:47:45.893Z,13.20
2022-09-18T11:50:18.809Z,13.30
2022-09-18T11:52:49.710Z,13.30
2022-09-18T11:55:29.550Z,13.30
2022-09-18T11:58:03.355Z,13.30
2022-09-18T12:00:41.833Z,13.30
2022-09-18T12:03:19.587Z,13.30
2022-09-18T12:06:41.466Z,13.30
2022-09-18T12:09:19.612Z,13.20
2022-09-18T12:11:57.313Z,13.20
2022-09-18T12:14:32.253Z,13.10
2022-09-18T12:17:17.339Z,13.10
2022-09-18T12:20:12.720Z,13.10
2022-09-18T12:22:48.718Z,13.00
2022-09-18T12:25:18.263Z,13.00
2022-09-18T12:31:04.272Z,12.90
2022-09-18T12:36:42.338Z,12.60
2022-09-18T12:39:33.923Z,12.40
2022-09-18T12:42:20.415Z,12.40
2022-09-18T12:45:28.919Z,12.20
2022-09-18T12:48:12.488Z,12.00
2022-09-18T12:50:59.836Z,12.00
2022-09-18T12:53:39.330Z,12.00
2022-09-18T12:56:19.523Z,12.00
2022-09-18T12:59:30.395Z,11.90
2022-09-18T13:02:17.105Z,11.90
2022-09-18T13:05:08.860Z,11.90
2022-09-18T13:07:52.588Z,11.90
2022-09-18T13:10:23.941Z,11.90
2022-09-18T13:13:09.508Z,11.80
2022-09-18T13:18:40.189Z,11.80
2022-09-18T13:21:22.247Z,11.70
2022-09-18T13:23:56.097Z,11.80
2022-09-18T13:26:28.412Z,11.80
2022-09-18T13:28:56.355Z,11.70
2022-09-18T13:31:28.856Z,11.80
2022-09-18T13:33:58.658Z,11.80
2022-09-18T13:36:30.100Z,11.80
2022-09-18T13:39:03.749Z,11.80
2022-09-18T13:44:54.461Z,11.80
2022-09-18T13:47:24.538Z,11.90
2022-09-18T13:49:56.364Z,11.90
2022-09-18T13:52:44.752Z,11.90
2022-09-18T13:55:52.377Z,11.90
2022-09-18T13:59:00.365Z,11.90
2022-09-18T14:02:25.013Z,12.00
2022-09-18T14:05:25.907Z,12.00
2022-09-18T14:08:45.077Z,11.90
2022-09-18T14:11:15.712Z,11.90
2022-09-18T14:14:08.179Z,11.90
2022-09-18T14:16:57.993Z,12.00
2022-09-18T14:19:34.660Z,12.00
2022-09-18T14:25:03.454Z,12.00
2022-09-18T14:27:41.055Z,12.00
2022-09-18T14:30:37.961Z,12.00
2022-09-18T14:33:36.982Z,12.00
2022-09-18T14:36:11.812Z,12.00
2022-09-18T14:38:42.505Z,12.00
2022-09-18T14:41:19.262Z,12.00
2022-09-18T14:43:55.699Z,12.00
2022-09-18T14:46:27.715Z,12.00
2022-09-18T14:48:56.983Z,12.00
2022-09-18T14:51:49.303Z,12.00
2022-09-18T14:54:25.874Z,12.00
2022-09-18T14:56:58.214Z,12.00
2022-09-18T14:59:31.189Z,12.00
2022-09-18T15:02:40.829Z,12.00
2022-09-18T15:05:16.722Z,12.00
2022-09-18T15:07:49.010Z,11.90
2022-09-18T15:10:21.083Z,11.60
2022-09-18T15:12:49.544Z,11.30
2022-09-18T15:15:32.976Z,11.20
2022-09-18T15:18:04.297Z,11.20
2022-09-18T15:20:33.572Z,11.10
2022-09-18T15:23:01.415Z,11.20
2022-09-18T15:25:32.808Z,11.20
2022-09-18T15:28:11.267Z,11.20
2022-09-18T15:30:42.773Z,11.20
2022-09-18T15:33:30.789Z,11.10
2022-09-18T15:36:00.400Z,11.00
2022-09-18T15:38:35.098Z,11.00
2022-09-18T15:41:27.285Z,11.10
2022-09-18T15:43:55.978Z,11.10
2022-09-18T15:46:35.178Z,11.10
2022-09-18T15:49:27.651Z,11.10
2022-09-18T15:52:00.580Z,11.10
2022-09-18T15:54:28.899Z,11.00
2022-09-18T15:56:58.677Z,11.10
2022-09-18T15:59:34.917Z,11.10
2022-09-18T16:02:33.748Z,11.10
2022-09-18T16:05:08.491Z,11.10
2022-09-18T16:07:38.820Z,11.20
2022-09-18T16:10:45.646Z,11.20
2022-09-18T16:13:38.900Z,11.20
2022-09-18T16:16:46.995Z,11.30
2022-09-18T16:19:17.306Z,11.30
2022-09-18T16:21:52.789Z,11.30
2022-09-18T16:24:29.953Z,11.30
2022-09-18T16:27:19.319Z,11.30
2022-09-18T16:30:08.421Z,11.30
2022-09-18T16:32:36.279Z,11.30
2022-09-18T16:35:11.133Z,11.30
2022-09-18T16:40:54.815Z,11.30
2022-09-18T16:43:26.339Z,11.30
2022-09-18T16:45:54.896Z,11.30
2022-09-18T16:51:08.825Z,11.40
2022-09-18T16:53:38.263Z,11.40
2022-09-18T16:56:19.588Z,11.40
2022-09-18T16:58:49.873Z,11.40
2022-09-18T17:01:26.065Z,11.40
2022-09-18T17:03:54.768Z,11.40
2022-09-18T17:06:22.595Z,11.40
2022-09-18T17:08:53.885Z,11.40
2022-09-18T17:11:23.627Z,11.40
2022-09-18T17:13:51.694Z,11.40
2022-09-18T17:16:43.448Z,11.40
2022-09-18T17:19:18.846Z,11.40
2022-09-18T17:22:06.567Z,11.50
2022-09-18T17:24:47.880Z,11.40
2022-09-18T17:30:34.586Z,11.40
2022-09-18T17:33:10.037Z,11.40
2022-09-18T17:35:37.859Z,11.40
2022-09-18T17:38:06.009Z,11.40
2022-09-18T17:40:34.150Z,11.50
2022-09-18T17:43:15.630Z,11.50
2022-09-18T17:45:50.353Z,11.40
2022-09-18T17:48:39.765Z,11.30
2022-09-18T17:51:37.455Z,11.20
2022-09-18T17:54:06.584Z,11.10
2022-09-18T17:56:35.962Z,11.10
2022-09-18T17:59:08.951Z,11.10
2022-09-18T18:01:42.995Z,11.20
2022-09-18T18:04:11.662Z,11.20
2022-09-18T18:06:39.791Z,11.20
2022-09-18T18:09:10.827Z,11.30
2022-09-18T18:17:44.673Z,11.30
2022-09-18T18:20:13.646Z,11.30
2022-09-18T18:22:41.922Z,11.30
2022-09-18T18:25:26.903Z,11.20
2022-09-18T18:27:55.455Z,11.20
2022-09-18T18:30:40.790Z,11.20
2022-09-18T18:33:11.422Z,11.20
2022-09-18T18:35:44.997Z,11.20
2022-09-18T18:38:18.153Z,11.30
2022-09-18T18:40:47.583Z,11.20
2022-09-18T18:43:16.356Z,11.20
2022-09-18T18:45:55.692Z,11.30
2022-09-18T18:48:28.983Z,11.30
2022-09-18T18:51:08.518Z,11.30
2022-09-18T18:53:36.940Z,11.40
2022-09-18T18:56:08.916Z,11.30
2022-09-18T18:58:46.602Z,11.40
2022-09-18T19:01:30.012Z,11.40
2022-09-18T19:04:02.541Z,11.40
2022-09-18T19:06:36.476Z,11.50
2022-09-18T19:09:10.139Z,11.50
2022-09-18T19:11:48.201Z,11.50
2022-09-18T19:14:18.910Z,11.40
2022-09-18T19:16:50.097Z,11.40
2022-09-18T19:19:21.243Z,11.40
2022-09-18T19:21:49.428Z,11.40
2022-09-18T19:24:18.522Z,11.40
2022-09-18T19:26:48.181Z,11.40
2022-09-18T19:29:19.264Z,11.40
2022-09-18T19:32:00.897Z,11.40
2022-09-18T19:34:28.723Z,11.40
2022-09-18T19:36:56.593Z,11.40
2022-09-18T19:39:24.652Z,11.40
2022-09-18T19:41:56.193Z,11.40
2022-09-18T19:44:31.162Z,11.40
2022-09-18T19:47:04.228Z,11.40
2022-09-18T19:49:34.682Z,11.50
2022-09-18T19:52:03.242Z,11.50
2022-09-18T19:54:31.555Z,11.50
2022-09-18T19:56:59.996Z,11.40
2022-09-18T19:59:27.836Z,11.50
2022-09-18T20:01:55.810Z,11.50
2022-09-18T20:04:25.801Z,11.50
2022-09-18T20:06:55.820Z,11.50
2022-09-18T20:09:28.586Z,11.50
2022-09-18T20:11:57.244Z,11.50
2022-09-18T20:14:25.407Z,11.50
2022-09-18T20:16:54.900Z,11.60
2022-09-18T20:19:24.706Z,11.60
2022-09-18T20:21:53.747Z,11.70
2022-09-18T20:24:21.641Z,11.70
2022-09-18T20:26:51.135Z,11.80
2022-09-18T20:29:19.701Z,11.80
2022-09-18T20:31:50.016Z,11.90
2022-09-18T20:34:22.288Z,11.90
2022-09-18T20:36:53.667Z,12.00
2022-09-18T20:39:22.135Z,12.00
2022-09-18T20:41:50.672Z,12.10
2022-09-18T20:44:24.340Z,12.10
2022-09-18T20:46:53.121Z,12.10
2022-09-18T20:49:21.818Z,12.10
2022-09-18T20:51:51.174Z,12.10
2022-09-18T20:54:23.929Z,12.20
2022-09-18T20:56:54.244Z,12.10
2022-09-18T20:59:22.114Z,12.10
2022-09-18T21:01:52.731Z,12.20
2022-09-18T21:04:22.129Z,12.20
2022-09-18T21:06:56.180Z,12.20
2022-09-18T21:09:26.273Z,12.20
2022-09-18T21:11:55.036Z,12.20
2022-09-18T21:14:25.444Z,12.20
2022-09-18T21:16:55.799Z,12.20
2022-09-18T21:19:26.305Z,12.20
2022-09-18T21:22:03.226Z,12.30
2022-09-18T21:24:33.061Z,12.30
2022-09-18T21:27:00.900Z,12.30
2022-09-18T21:29:34.470Z,12.40
2022-09-18T21:32:02.472Z,12.40
2022-09-18T21:34:34.820Z,12.40
2022-09-18T21:37:12.715Z,12.40
2022-09-18T21:39:42.473Z,12.50
2022-09-18T21:44:52.552Z,12.60
2022-09-18T21:47:25.622Z,12.60
2022-09-18T21:49:53.523Z,12.70
2022-09-18T21:52:24.600Z,12.70
2022-09-18T21:54:52.463Z,12.80
2022-09-18T21:57:20.280Z,12.80
2022-09-18T21:59:51.948Z,12.80
2022-09-18T22:02:22.003Z,12.80
2022-09-18T22:04:49.879Z,12.80
2022-09-18T22:07:20.610Z,12.80
2022-09-18T22:09:52.009Z,12.80
2022-09-18T22:12:20.197Z,12.80
2022-09-18T22:14:49.899Z,12.80
2022-09-18T22:17:18.177Z,12.70
2022-09-18T22:19:46.061Z,12.70
2022-09-18T22:22:13.898Z,12.70
2022-09-18T22:24:41.723Z,12.70
2022-09-18T22:27:12.944Z,12.60
2022-09-18T22:29:43.376Z,12.60
2022-09-18T22:32:12.163Z,12.60
2022-09-18T22:34:41.589Z,12.60
2022-09-18T22:37:11.086Z,12.60
2022-09-18T22:39:39.383Z,12.60
2022-09-18T22:42:07.582Z,12.60
2022-09-18T22:44:36.718Z,12.60
2022-09-18T22:47:06.909Z,12.60
2022-09-18T22:49:42.764Z,12.60
2022-09-18T22:52:10.613Z,12.60
2022-09-18T22:54:46.843Z,12.70
2022-09-18T22:57:23.933Z,12.70
2022-09-18T22:59:53.257Z,12.70
2022-09-18T23:02:23.249Z,12.70
2022-09-18T23:04:51.897Z,12.80
2022-09-18T23:07:19.821Z,12.80
2022-09-18T23:09:59.356Z,12.80
2022-09-18T23:12:27.150Z,12.80
2022-09-18T23:14:58.427Z,12.80
2022-09-18T23:17:31.370Z,12.80
2022-09-18T23:19:59.600Z,12.80
2022-09-18T23:22:27.375Z,12.90
2022-09-18T23:24:55.193Z,12.90
2022-09-18T23:27:23.117Z,12.90
2022-09-18T23:29:52.981Z,12.90
2022-09-18T23:32:22.439Z,12.90
2022-09-18T23:34:50.508Z,12.90
2022-09-18T23:37:18.314Z,12.90
2022-09-18T23:39:46.195Z,12.90
2022-09-18T23:42:14.054Z,12.90
2022-09-18T23:44:41.911Z,12.90
2022-09-18T23:47:09.941Z,12.90
2022-09-18T23:49:39.386Z,13.00
2022-09-18T23:52:07.216Z,13.00
2022-09-18T23:54:35.089Z,13.00
2022-09-18T23:57:04.591Z,13.00
2022-09-18T23:59:39.282Z,13.00
